Time;durP1;ratioP1;P1;durP2;ratioP2;P2;SDS_P1;SDS_P2;PMS_P1;PMS_P2;Temp;Humidity;BMP_temperature;BMP_pressure;BME280_temperature;BME280_humidity;BME280_pressure;Samples;Min_cycle;Max_cycle;Signal;HPM_P1;HPM_P2
2021/10/21 00:00:16;;;;;;;;;;;;;;;2.94;86.57;97731.92;116512;1183;69259;-82
2021/10/21 00:03:06;;;;;;;28.10;18.50;;;;;;;2.89;86.47;97733.01;116343;1184;60355;-81
2021/10/21 00:05:35;;;;;;;25.30;16.10;;;;;;;2.89;87.01;97732.70;116504;1182;60367;-85
2021/10/21 00:08:06;;;;;;;23.90;14.80;;;;;;;2.89;87.31;97731.44;116462;1182;72071;-68
2021/10/21 00:10:36;;;;;;;25.60;16.60;;;;;;;2.85;87.41;97729.52;116645;1182;67384;-69
2021/10/21 00:13:07;;;;;;;26.50;16.80;;;;;;;2.80;86.89;97725.59;116413;1182;68480;-79
2021/10/21 00:15:38;;;;;;;26.70;17.10;;;;;;;2.77;87.18;97722.84;116430;1184;60319;-81
2021/10/21 00:18:08;;;;;;;24.30;15.80;;;;;;;2.74;87.36;97722.37;116506;1182;60281;-78
2021/10/21 00:20:38;;;;;;;28.00;16.70;;;;;;;2.70;87.44;97717.49;116377;1182;72354;-74
2021/10/21 00:23:08;;;;;;;26.30;16.90;;;;;;;2.64;86.74;97716.50;116531;1182;67419;-84
2021/10/21 00:25:37;;;;;;;25.30;15.90;;;;;;;2.59;86.92;97717.11;116393;1184;68698;-81
2021/10/21 00:28:06;;;;;;;20.60;12.20;;;;;;;2.55;86.95;97717.79;116421;1182;60355;-75
2021/10/21 00:30:36;;;;;;;19.50;11.60;;;;;;;2.50;87.36;97717.90;116423;1181;60359;-68
2021/10/21 00:33:05;;;;;;;19.50;12.90;;;;;;;2.47;87.62;97714.83;116477;1183;72165;-83
2021/10/21 00:35:36;;;;;;;22.80;14.40;;;;;;;2.45;88.09;97714.11;116465;1184;67572;-81
2021/10/21 00:38:06;;;;;;;31.50;17.20;;;;;;;2.42;87.40;97713.55;116399;1182;68471;-70
2021/10/21 00:40:36;;;;;;;25.30;16.00;;;;;;;2.44;87.25;97711.61;116405;1182;60309;-81
2021/10/21 00:43:06;;;;;;;;;;;;;;;2.44;87.91;97710.91;116500;1180;60376;-72
2021/10/21 00:45:38;;;;;;;29.00;16.70;;;;;;;2.40;88.02;97712.21;116548;1183;72177;-80
2021/10/21 00:48:09;;;;;;;26.80;17.80;;;;;;;2.35;87.26;97708.90;116546;1181;68394;-77
2021/10/21 00:50:40;;;;;;;25.40;17.00;;;;;;;2.32;87.65;97704.71;116374;1182;68466;-74
2021/10/21 00:53:11;;;;;;;22.00;15.30;;;;;;;2.29;87.82;97698.05;116445;1182;60359;-73
2021/10/21 00:55:41;;;;;;;24.60;16.60;;;;;;;2.28;88.37;97695.33;116518;1182;60349;-68
2021/10/21 00:58:12;;;;;;;25.50;16.90;;;;;;;2.25;88.16;97689.38;116487;1182;72029;-82
2021/10/21 01:00:42;;;;;;;23.70;16.70;;;;;;;2.26;87.64;97686.09;116508;1182;66618;-80
2021/10/21 01:03:13;;;;;;;26.40;17.00;;;;;;;2.29;88.23;97687.13;116449;1182;69078;-71
2021/10/21 01:05:43;;;;;;;31.80;17.70;;;;;;;2.29;87.85;97686.20;116442;1181;60333;-79
2021/10/21 01:08:14;;;;;;;30.20;18.10;;;;;;;2.30;87.52;97685.34;116486;1183;60365;-77
2021/10/21 01:10:44;;;;;;;30.60;19.70;;;;;;;2.33;86.91;97680.45;116452;1183;72234;-70
2021/10/21 01:13:14;;;;;;;26.30;16.60;;;;;;;2.36;86.53;97683.21;116487;1183;68225;-67
2021/10/21 01:15:43;;;;;;;27.80;17.10;;;;;;;2.36;86.97;97676.04;116460;1177;68331;-74
2021/10/21 01:18:13;;;;;;;28.40;16.70;;;;;;;2.33;87.16;97672.09;116437;1182;60349;-80
2021/10/21 01:20:46;;;;;;;32.90;20.90;;;;;;;2.37;86.65;97669.55;116508;1180;60737;-79
2021/10/21 01:23:19;;;;;;;30.70;17.80;;;;;;;2.43;87.02;97671.30;116234;1184;72097;-75
2021/10/21 01:25:49;;;;;;;26.60;17.10;;;;;;;2.42;87.24;97666.85;116432;1182;68388;-77
2021/10/21 01:28:18;;;;;;;30.00;17.70;;;;;;;2.38;87.02;97666.98;116437;1182;68298;-82
2021/10/21 01:30:49;;;;;;;26.00;17.00;;;;;;;2.36;87.21;97659.64;116336;1182;60437;-77
2021/10/21 01:33:18;;;;;;;29.60;19.40;;;;;;;2.32;86.58;97661.16;116421;1183;60343;-68
2021/10/21 01:35:48;;;;;;;26.00;17.00;;;;;;;2.32;86.97;97658.25;116466;1184;71410;-81
2021/10/21 01:38:18;;;;;;;30.30;18.90;;;;;;;2.33;88.59;97662.09;116439;1182;67560;-82
2021/10/21 01:40:48;;;;;;;31.90;19.70;;;;;;;2.32;88.24;97665.52;116438;1182;69225;-84
2021/10/21 01:43:18;;;;;;;26.60;17.50;;;;;;;2.30;88.59;97661.77;116377;1182;60350;-79
2021/10/21 01:45:51;;;;;;;29.90;20.20;;;;;;;2.27;88.79;97657.53;116423;1182;60402;-81
2021/10/21 01:48:20;;;;;;;32.90;19.10;;;;;;;2.25;87.44;97653.30;116457;1182;71424;-72
2021/10/21 01:50:51;;;;;;;26.10;16.50;;;;;;;2.20;87.82;97652.96;116460;1182;67605;-71
2021/10/21 01:53:21;;;;;;;24.20;17.10;;;;;;;2.06;87.10;97647.01;116475;1182;68654;-72
2021/10/21 01:55:51;;;;;;;22.10;13.90;;;;;;;1.97;87.07;97640.45;116462;1182;60368;-78
2021/10/21 01:58:21;;;;;;;22.30;13.70;;;;;;;1.89;87.76;97640.39;116523;1182;60324;-67
2021/10/21 02:00:52;;;;;;;29.30;17.10;;;;;;;1.83;87.89;97636.38;116435;1182;72160;-81
2021/10/21 02:03:22;;;;;;;28.30;16.60;;;;;;;1.80;88.40;97638.20;116433;1182;68246;-70
2021/10/21 02:05:52;;;;;;;28.40;18.50;;;;;;;1.77;88.90;97641.29;116475;1182;68434;-73
2021/10/21 02:08:23;;;;;;;26.70;17.90;;;;;;;1.73;88.25;97642.90;116468;1181;60794;-71
2021/10/21 02:10:55;;;;;;;26.10;16.50;;;;;;;1.70;87.35;97644.52;116412;1182;60277;-72
2021/10/21 02:13:25;;;;;;;;;;;;;;;1.71;87.67;97644.14;116532;1182;72222;-73
2021/10/21 02:15:57;;;;;;;24.20;14.10;;;;;;;1.75;88.99;97643.23;116442;1182;68863;-80
2021/10/21 02:18:28;;;;;;;24.30;15.50;;;;;;;1.78;88.47;97640.37;116571;1181;68554;-81
2021/10/21 02:20:59;;;;;;;41.90;24.00;;;;;;;1.80;87.67;97629.64;116525;1180;60417;-75
2021/10/21 02:23:31;;;;;;;41.20;24.30;;;;;;;1.88;87.27;97627.67;116533;1182;60825;-79
2021/10/21 02:26:01;;;;;;;44.50;26.50;;;;;;;1.95;87.15;97627.70;116486;1182;72194;-72
2021/10/21 02:28:31;;;;;;;38.80;23.10;;;;;;;1.97;87.49;97623.27;116505;1182;67411;-73
2021/10/21 02:31:02;;;;;;;34.70;21.90;;;;;;;1.96;87.47;97617.89;116362;1182;68460;-71
2021/10/21 02:33:33;;;;;;;34.70;20.60;;;;;;;1.95;87.40;97614.13;116493;1182;60330;-80
2021/10/21 02:36:03;;;;;;;30.80;20.10;;;;;;;1.94;87.73;97615.92;116377;1183;60363;-68
2021/10/21 02:38:33;;;;;;;27.30;18.10;;;;;;;1.90;87.62;97614.10;116393;1182;72024;-75
2021/10/21 02:41:03;;;;;;;27.80;17.20;;;;;;;1.85;87.99;97614.53;116486;1182;68219;-71
2021/10/21 02:43:35;;;;;;;25.30;17.10;;;;;;;1.83;89.22;97616.25;116514;1182;68423;-77
2021/10/21 02:46:05;;;;;;;25.80;16.80;;;;;;;1.80;89.27;97615.90;116529;1182;60364;-69
2021/10/21 02:48:36;;;;;;;24.20;16.50;;;;;;;1.77;88.86;97620.63;116503;1182;60395;-68
2021/10/21 02:51:06;;;;;;;;;;;;;;;1.76;88.93;97617.95;116510;1181;71379;-69
2021/10/21 02:53:35;;;;;;;26.30;16.10;;;;;;;1.74;88.83;97616.47;116418;1180;66963;-75
2021/10/21 02:56:05;;;;;;;;;;;;;;;1.71;88.46;97614.89;116480;1182;69245;-73
2021/10/21 02:58:36;;;;;;;22.90;14.80;;;;;;;1.69;88.51;97613.15;116468;1182;60350;-78
2021/10/21 03:01:06;;;;;;;27.20;17.50;;;;;;;1.66;88.69;97616.64;116463;1182;60325;-76
2021/10/21 03:03:36;;;;;;;22.60;14.70;;;;;;;1.63;88.46;97616.38;116465;1182;72166;-79
2021/10/21 03:06:06;;;;;;;26.20;16.00;;;;;;;1.57;88.12;97617.01;116378;1183;68438;-77
2021/10/21 03:08:36;;;;;;;24.00;15.00;;;;;;;1.52;88.44;97614.09;116483;1181;69085;-71
2021/10/21 03:11:06;;;;;;;24.90;16.50;;;;;;;1.48;89.13;97610.72;116400;1182;60420;-72
2021/10/21 03:13:36;;;;;;;31.40;18.50;;;;;;;1.45;88.63;97605.39;116355;1182;60447;-70
2021/10/21 03:16:05;;;;;;;24.50;15.80;;;;;;;1.43;88.20;97605.67;116340;1183;70413;-71
2021/10/21 03:18:34;;;;;;;26.50;16.80;;;;;;;1.41;88.64;97599.95;116425;1182;68374;-68
2021/10/21 03:21:04;;;;;;;25.60;15.60;;;;;;;1.38;88.44;97592.67;116439;1182;69123;-82
2021/10/21 03:23:33;;;;;;;22.30;14.80;;;;;;;1.39;89.15;97587.63;116438;1182;60391;-73
2021/10/21 03:26:03;;;;;;;29.40;19.10;;;;;;;1.38;88.83;97582.62;116310;1182;60410;-76
2021/10/21 03:28:32;;;;;;;35.30;20.80;;;;;;;1.41;87.88;97577.49;116408;1182;71223;-78
2021/10/21 03:31:01;;;;;;;30.60;18.80;;;;;;;1.45;87.52;97576.08;116326;1183;67536;-71
2021/10/21 03:33:31;;;;;;;27.80;18.00;;;;;;;1.47;88.11;97572.73;116333;1182;69292;-78
2021/10/21 03:36:00;;;;;;;27.90;17.70;;;;;;;1.47;88.26;97570.08;116382;1182;60353;-79
2021/10/21 03:38:30;;;;;;;26.60;16.50;;;;;;;1.45;88.03;97565.23;116469;1182;60393;-73
2021/10/21 03:41:01;;;;;;;24.30;15.00;;;;;;;1.43;87.93;97563.49;116433;1182;72211;-80
2021/10/21 03:43:30;;;;;;;26.70;16.80;;;;;;;1.44;88.67;97564.91;116433;1182;67731;-72
2021/10/21 03:45:59;;;;;;;27.90;17.00;;;;;;;1.45;89.06;97566.95;116445;1182;69054;-77
2021/10/21 03:48:29;;;;;;;30.40;16.70;;;;;;;1.46;88.84;97560.80;116418;1182;60353;-74
2021/10/21 03:50:59;;;;;;;24.80;16.20;;;;;;;1.47;88.57;97558.23;116441;1181;60331;-82
2021/10/21 03:53:28;;;;;;;25.40;15.70;;;;;;;1.49;88.26;97556.99;116487;1182;72260;-73
2021/10/21 03:55:58;;;;;;;29.50;16.90;;;;;;;1.47;88.02;97551.84;116442;1181;68301;-72
2021/10/21 03:58:27;;;;;;;29.50;16.20;;;;;;;1.47;87.90;97546.85;116429;1182;69247;-70
2021/10/21 04:00:57;;;;;;;31.50;18.00;;;;;;;1.50;87.92;97543.13;116467;1182;60365;-68
2021/10/21 04:03:26;;;;;;;36.70;20.90;;;;;;;1.55;87.82;97542.53;116386;1180;60396;-74
2021/10/21 04:05:55;;;;;;;53.70;24.90;;;;;;;1.63;87.90;97540.02;116458;1182;72136;-81
2021/10/21 04:08:25;;;;;;;48.10;24.90;;;;;;;1.74;88.63;97532.52;116460;1182;67557;-78
2021/10/21 04:10:54;;;;;;;35.50;21.50;;;;;;;1.79;89.14;97537.10;116420;1182;69295;-73
2021/10/21 04:13:24;;;;;;;32.70;19.80;;;;;;;1.79;89.25;97532.26;116369;1182;60358;-77
2021/10/21 04:15:53;;;;;;;31.00;18.60;;;;;;;1.75;89.15;97532.45;116373;1184;60335;-69
2021/10/21 04:18:22;;;;;;;29.40;17.80;;;;;;;1.72;89.18;97528.15;116491;1182;72432;-67
2021/10/21 04:20:51;;;;;;;28.30;18.40;;;;;;;1.70;89.31;97520.89;116475;1182;68373;-80
2021/10/21 04:23:20;;;;;;;32.70;17.10;;;;;;;1.68;89.64;97516.66;116422;1183;68525;-73
2021/10/21 04:25:49;;;;;;;25.00;16.60;;;;;;;1.64;90.16;97516.09;116420;1182;60423;-78
2021/10/21 04:28:18;;;;;;;22.90;14.50;;;;;;;1.59;90.63;97511.05;116481;1182;60348;-82
2021/10/21 04:30:47;;;;;;;24.40;15.20;;;;;;;1.57;90.69;97508.62;116420;1182;72264;-70
2021/10/21 04:33:17;;;;;;;25.80;16.30;;;;;;;1.55;90.42;97503.92;116375;1182;67679;-73
2021/10/21 04:35:46;;;;;;;28.00;16.40;;;;;;;1.58;90.11;97501.44;116421;1182;69457;-76
2021/10/21 04:38:15;;;;;;;28.60;16.90;;;;;;;1.56;90.16;97498.16;116419;1182;60367;-72
2021/10/21 04:40:44;;;;;;;21.80;15.00;;;;;;;1.52;89.82;97491.59;116421;1182;60315;-76
2021/10/21 04:43:14;;;;;;;24.50;14.40;;;;;;;1.50;89.89;97486.83;116447;1182;71969;-79
2021/10/21 04:45:43;;;;;;;42.00;21.70;;;;;;;1.48;89.95;97484.09;116485;1182;67719;-77
2021/10/21 04:48:13;;;;;;;26.30;15.60;;;;;;;1.50;89.49;97481.76;116452;1182;69254;-75
2021/10/21 04:50:42;;;;;;;25.30;15.50;;;;;;;1.54;89.69;97477.33;116365;1183;60298;-77
2021/10/21 04:53:12;;;;;;;27.40;15.20;;;;;;;1.55;89.40;97480.92;116440;1182;60352;-68
2021/10/21 04:55:41;;;;;;;26.30;15.30;;;;;;;1.57;90.21;97479.84;116436;1182;72238;-76
2021/10/21 04:58:10;;;;;;;26.40;16.40;;;;;;;1.57;89.99;97476.72;116490;1182;67722;-81
2021/10/21 05:00:40;;;;;;;27.30;17.00;;;;;;;1.61;89.51;97476.36;116441;1182;69232;-75
2021/10/21 05:03:12;;;;;;;37.80;20.50;;;;;;;1.66;89.23;97475.23;116303;1182;60368;-79
2021/10/21 05:05:43;;;;;;;43.10;20.70;;;;;;;1.84;89.49;97473.39;116498;1182;60384;-76
2021/10/21 05:08:12;;;;;;;;;;;;;;;1.97;89.60;97476.42;116376;1183;72225;-75
2021/10/21 05:10:41;;;;;;;38.50;18.20;;;;;;;2.01;89.48;97470.21;116432;1182;67728;-70
2021/10/21 05:13:12;;;;;;;37.00;18.90;;;;;;;2.05;89.56;97472.17;116317;1183;69230;-81
2021/10/21 05:15:41;;;;;;;74.10;41.00;;;;;;;2.11;89.45;97468.98;116441;1182;60330;-76
2021/10/21 05:18:10;;;;;;;108.00;54.70;;;;;;;2.17;89.16;97469.03;116387;1181;60365;-81
2021/10/21 05:20:39;;;;;;;68.00;39.30;;;;;;;2.22;89.20;97469.75;116444;1182;72325;-79
2021/10/21 05:23:08;;;;;;;66.40;36.20;;;;;;;2.26;89.33;97469.37;116441;1177;67423;-78
2021/10/21 05:25:37;;;;;;;92.10;52.20;;;;;;;2.31;89.27;97466.58;116444;1182;69340;-76
2021/10/21 05:28:06;;;;;;;82.50;50.30;;;;;;;2.40;89.77;97466.61;116497;1182;60347;-79
2021/10/21 05:30:35;;;;;;;60.40;34.90;;;;;;;2.47;89.63;97464.27;116464;1182;60370;-78
2021/10/21 05:33:04;;;;;;;51.70;33.60;;;;;;;2.52;89.74;97462.99;116461;1182;72250;-77
2021/10/21 05:35:33;;;;;;;51.20;31.20;;;;;;;2.57;89.28;97460.58;116402;1183;67793;-79
2021/10/21 05:38:02;;;;;;;58.40;35.90;;;;;;;2.58;88.78;97465.19;116409;1182;68692;-82
2021/10/21 05:40:31;;;;;;;55.00;35.30;;;;;;;2.61;88.57;97465.89;116438;1182;60348;-72
2021/10/21 05:43:00;;;;;;;44.70;31.30;;;;;;;2.67;88.77;97460.74;116391;1182;60756;-69
2021/10/21 05:45:29;;;;;;;41.60;28.10;;;;;;;2.76;88.95;97461.32;116391;1183;71452;-81
2021/10/21 05:47:58;;;;;;;54.80;35.20;;;;;;;2.86;88.93;97459.77;116320;1182;66969;-68
2021/10/21 05:50:26;;;;;;;62.70;33.50;;;;;;;2.85;88.56;97466.88;116470;1183;69821;-74
2021/10/21 05:52:55;;;;;;;33.40;23.20;;;;;;;2.80;87.36;97460.70;116494;1182;60367;-71
2021/10/21 05:55:24;;;;;;;39.50;24.20;;;;;;;2.87;86.95;97463.13;116415;1182;60351;-68
2021/10/21 05:57:53;;;;;;;39.00;26.30;;;;;;;3.02;87.77;97464.00;116273;1182;72256;-74
2021/10/21 06:00:22;;;;;;;43.80;27.50;;;;;;;3.18;87.82;97466.13;116446;1182;67017;-72
2021/10/21 06:02:51;;;;;;;35.50;25.70;;;;;;;3.40;87.49;97471.37;116389;1182;70038;-83
2021/10/21 06:05:22;;;;;;;41.00;28.20;;;;;;;3.64;86.78;97469.15;116424;1182;60885;-82
2021/10/21 06:07:51;;;;;;;44.10;28.30;;;;;;;4.03;86.95;97467.66;116503;1182;60352;-84
2021/10/21 06:10:20;;;;;;;45.60;30.00;;;;;;;4.43;86.96;97466.89;116454;1182;71416;-76
2021/10/21 06:12:50;;;;;;;59.70;34.30;;;;;;;4.86;84.02;97468.93;116416;1182;67731;-85
2021/10/21 06:15:20;;;;;;;52.60;33.40;;;;;;;5.34;83.19;97462.70;116516;1182;68484;-74
2021/10/21 06:17:50;;;;;;;54.10;34.80;;;;;;;6.00;79.64;97463.67;116438;1182;60366;-87
2021/10/21 06:20:19;;;;;;;54.50;34.10;;;;;;;6.59;75.89;97461.41;116481;1182;60375;-76
2021/10/21 06:22:48;;;;;;;50.10;32.40;;;;;;;7.03;72.63;97457.41;116471;1182;71446;-77
2021/10/21 06:25:17;;;;;;;49.00;31.50;;;;;;;7.49;71.02;97459.43;116538;1181;67591;-80
2021/10/21 06:27:46;;;;;;;47.80;29.30;;;;;;;7.96;69.70;97457.90;116429;1173;69952;-81
2021/10/21 06:30:15;;;;;;;55.60;33.60;;;;;;;8.35;70.84;97454.42;116482;1182;60370;-68
2021/10/21 06:32:44;;;;;;;60.40;34.80;;;;;;;8.91;67.92;97452.70;116475;1181;60345;-73
2021/10/21 06:35:15;;;;;;;56.30;31.90;;;;;;;9.15;65.78;97447.97;116349;1182;71827;-71
2021/10/21 06:37:46;;;;;;;58.10;34.30;;;;;;;9.48;64.51;97446.54;116524;1182;67641;-77
2021/10/21 06:40:16;;;;;;;55.70;31.50;;;;;;;10.09;66.98;97444.19;116516;1182;69129;-78
2021/10/21 06:42:45;;;;;;;63.80;38.70;;;;;;;10.44;63.80;97439.67;116462;1182;60351;-84
2021/10/21 06:45:15;;;;;;;71.30;40.60;;;;;;;10.96;63.28;97436.06;116503;1182;60328;-74
2021/10/21 06:47:44;;;;;;;72.60;40.90;;;;;;;11.35;61.68;97437.13;116498;1181;72207;-68
2021/10/21 06:50:13;;;;;;;58.10;38.60;;;;;;;11.75;60.84;97435.73;116476;1182;67449;-74
2021/10/21 06:52:44;;;;;;;51.80;33.00;;;;;;;12.07;58.74;97430.48;116442;1182;69986;-72
2021/10/21 06:55:15;;;;;;;44.60;30.60;;;;;;;12.25;57.40;97427.30;116472;1182;60380;-86
2021/10/21 06:57:47;;;;;;;51.30;33.90;;;;;;;12.42;56.62;97423.72;116542;1181;60324;-73
2021/10/21 07:00:17;;;;;;;49.10;33.00;;;;;;;12.72;56.27;97417.45;116510;1182;72154;-84
2021/10/21 07:02:46;;;;;;;46.80;31.20;;;;;;;13.03;56.14;97421.43;116522;1182;68592;-77
2021/10/21 07:05:17;;;;;;;52.20;32.70;;;;;;;13.35;54.97;97421.29;116475;1182;68273;-70
2021/10/21 07:07:46;;;;;;;41.40;29.50;;;;;;;13.86;54.40;97422.65;116523;1182;60400;-77
2021/10/21 07:10:15;;;;;;;39.30;28.40;;;;;;;14.02;53.53;97426.58;116406;1182;60352;-83
2021/10/21 07:12:47;;;;;;;37.20;27.50;;;;;;;13.77;53.12;97422.80;116512;1182;72026;-78
2021/10/21 07:15:17;;;;;;;41.40;28.60;;;;;;;13.73;53.19;97424.54;116456;1182;68382;-81
2021/10/21 07:17:46;;;;;;;35.90;25.50;;;;;;;14.87;52.21;97421.40;116455;1182;68610;-70
2021/10/21 07:20:15;;;;;;;37.00;23.40;;;;;;;14.83;50.69;97415.85;116491;1182;60356;-77
2021/10/21 07:22:44;;;;;;;35.10;23.40;;;;;;;15.43;50.95;97419.65;116575;1180;60371;-71
2021/10/21 07:25:14;;;;;;;30.50;20.40;;;;;;;15.93;49.51;97419.38;116366;1182;72926;-74
2021/10/21 07:27:43;;;;;;;24.10;16.80;;;;;;;15.98;49.11;97417.36;116530;1182;67650;-86
2021/10/21 07:30:13;;;;;;;25.70;15.30;;;;;;;16.17;49.09;97417.75;116536;1182;68536;-76
2021/10/21 07:32:43;;;;;;;;;;;;;;;16.15;47.69;97416.25;116492;1181;60386;-70
2021/10/21 07:35:12;;;;;;;16.70;12.30;;;;;;;16.06;48.74;97411.21;116458;1182;60371;-77
2021/10/21 07:37:41;;;;;;;18.90;10.10;;;;;;;16.22;48.11;97408.15;116424;1182;71180;-87
2021/10/21 07:40:11;;;;;;;15.50;10.70;;;;;;;16.96;45.75;97411.80;116450;1182;67861;-72
2021/10/21 07:42:41;;;;;;;13.30;9.20;;;;;;;16.96;45.87;97409.25;116472;1173;69239;-70
2021/10/21 07:45:10;;;;;;;;;;;;;;;17.41;44.64;97407.20;116487;1181;60347;-73
2021/10/21 07:47:40;;;;;;;12.20;7.90;;;;;;;17.47;44.38;97400.31;116501;1182;60366;-79
2021/10/21 07:50:10;;;;;;;11.70;7.60;;;;;;;17.67;42.62;97399.33;116494;1181;71464;-75
2021/10/21 07:52:39;;;;;;;;;;;;;;;18.08;43.11;97391.40;116458;1182;67800;-72
2021/10/21 07:55:08;;;;;;;12.90;8.30;;;;;;;18.20;41.70;97389.20;116492;1182;68466;-74
2021/10/21 07:57:37;;;;;;;10.60;7.90;;;;;;;18.50;39.73;97383.55;116608;1182;60364;-88
2021/10/21 08:00:12;;;;;;;12.60;8.50;;;;;;;17.96;41.38;97378.11;116462;1182;60344;-81
2021/10/21 08:02:42;;;;;;;10.70;7.50;;;;;;;18.29;41.09;97379.71;116368;1183;72797;-70
2021/10/21 08:05:11;;;;;;;9.70;7.10;;;;;;;18.84;40.97;97378.23;116553;1182;68603;-76
2021/10/21 08:07:42;;;;;;;12.30;7.20;;;;;;;19.57;38.48;97374.58;116522;1181;69639;-77
2021/10/21 08:10:13;;;;;;;10.60;6.90;;;;;;;19.74;37.92;97372.29;116453;1181;60819;-75
2021/10/21 08:12:43;;;;;;;11.70;7.40;;;;;;;19.54;37.40;97367.29;116449;1182;60345;-87
2021/10/21 08:15:13;;;;;;;9.70;6.70;;;;;;;19.69;37.60;97357.98;116546;1181;72183;-72
2021/10/21 08:17:43;;;;;;;;;;;;;;;19.96;37.00;97360.25;116509;1182;67568;-77
2021/10/21 08:20:13;;;;;;;9.30;6.40;;;;;;;20.24;35.57;97355.16;116435;1182;69338;-83
2021/10/21 08:22:47;;;;;;;10.70;6.20;;;;;;;20.62;34.73;97353.59;116529;1182;60356;-72
2021/10/21 08:25:17;;;;;;;9.60;6.30;;;;;;;21.20;32.65;97343.80;116349;1174;60380;-70
2021/10/21 08:27:46;;;;;;;8.70;5.50;;;;;;;20.85;33.34;97340.70;116698;1180;72196;-79
2021/10/21 08:30:18;;;;;;;9.30;5.50;;;;;;;20.97;32.76;97333.52;116778;1181;68958;-82
2021/10/21 08:32:47;;;;;;;10.60;6.70;;;;;;;21.34;33.10;97335.84;116651;1182;69267;-71
2021/10/21 08:35:16;;;;;;;10.50;6.40;;;;;;;21.90;31.85;97334.19;116621;1181;60371;-76
2021/10/21 08:37:45;;;;;;;9.20;6.40;;;;;;;21.87;31.73;97330.64;116680;1182;60356;-84
2021/10/21 08:40:16;;;;;;;8.20;5.30;;;;;;;22.07;30.93;97326.19;116638;1182;72297;-73
2021/10/21 08:42:46;;;;;;;11.70;6.20;;;;;;;21.74;30.96;97328.66;116559;1182;69054;-82
2021/10/21 08:45:16;;;;;;;10.30;6.40;;;;;;;21.73;31.30;97329.58;116494;1182;69159;-80
2021/10/21 08:47:49;;;;;;;8.40;6.30;;;;;;;21.34;31.33;97327.30;116544;1181;60342;-82
2021/10/21 08:50:24;;;;;;;11.10;6.80;;;;;;;21.56;31.40;97326.63;116522;1182;60337;-81
2021/10/21 08:52:53;;;;;;;11.00;6.60;;;;;;;22.06;31.11;97323.86;116541;1181;71934;-69
2021/10/21 08:55:22;;;;;;;11.00;7.30;;;;;;;22.47;30.10;97312.25;116502;1182;68421;-70
2021/10/21 08:57:51;;;;;;;12.60;7.30;;;;;;;22.34;30.38;97313.15;116536;1182;68430;-79
2021/10/21 09:00:20;;;;;;;9.60;6.30;;;;;;;22.21;30.81;97313.45;116506;1182;60300;-87
2021/10/21 09:02:57;;;;;;;11.00;6.30;;;;;;;22.99;29.13;97313.68;116462;1181;60344;-84
2021/10/21 09:05:37;;;;;;;12.90;6.30;;;;;;;22.36;29.90;97308.12;116528;1182;71387;-79
2021/10/21 09:08:14;;;;;;;10.80;6.70;;;;;;;22.25;30.17;97308.60;116251;1182;68545;-83
2021/10/21 09:10:53;;;;;;;10.90;6.90;;;;;;;22.25;30.68;97306.80;116583;1182;69232;-81
2021/10/21 09:13:30;;;;;;;12.60;6.30;;;;;;;22.22;30.26;97299.09;116326;1183;60312;-88
2021/10/21 09:16:03;;;;;;;10.90;6.60;;;;;;;21.74;31.66;97296.48;116504;1181;60335;-83
2021/10/21 09:18:48;;;;;;;11.40;6.70;;;;;;;22.25;30.38;97297.05;116521;1181;72661;-77
2021/10/21 09:21:34;;;;;;;9.20;6.10;;;;;;;22.05;31.14;97285.59;116409;1182;68637;-75
2021/10/21 09:24:23;;;;;;;11.30;5.50;;;;;;;22.78;30.14;97285.79;116477;1182;69242;-79
2021/10/21 09:27:13;;;;;;;8.10;6.20;;;;;;;23.24;28.61;97280.58;116526;1181;60291;-80
2021/10/21 09:29:44;;;;;;;8.30;6.10;;;;;;;22.50;30.20;97274.67;116373;1173;60373;-75
2021/10/21 09:32:19;;;;;;;9.40;6.30;;;;;;;22.75;29.66;97269.70;116587;1182;72734;-76
2021/10/21 09:35:02;;;;;;;10.00;6.10;;;;;;;23.36;29.39;97267.77;116517;1181;68493;-81
2021/10/21 09:37:32;;;;;;;7.00;5.50;;;;;;;24.06;27.62;97266.60;116498;1182;69732;-79
2021/10/21 09:40:03;;;;;;;8.70;5.60;;;;;;;23.86;28.45;97263.41;116450;1182;60303;-79
2021/10/21 09:42:34;;;;;;;8.40;5.40;;;;;;;23.53;28.38;97260.70;116505;1181;60350;-75
2021/10/21 09:45:19;;;;;;;7.70;5.30;;;;;;;23.25;28.90;97263.51;116476;1183;71524;-86
2021/10/21 09:47:54;;;;;;;8.70;5.80;;;;;;;23.44;28.72;97262.58;116256;1182;67482;-78
2021/10/21 09:50:36;;;;;;;7.90;6.20;;;;;;;23.54;28.48;97261.27;116570;1182;69319;-85
2021/10/21 09:53:29;;;;;;;9.60;6.30;;;;;;;23.32;29.24;97261.23;116546;1181;60368;-82
2021/10/21 09:56:10;;;;;;;10.90;6.70;;;;;;;23.67;28.38;97255.19;116518;1182;60318;-82
2021/10/21 09:58:41;;;;;;;10.10;6.60;;;;;;;23.09;29.23;97251.80;116553;1182;71339;-80
2021/10/21 10:01:14;;;;;;;11.30;6.90;;;;;;;23.65;29.01;97251.51;116526;1182;68427;-77
2021/10/21 10:03:47;;;;;;;11.50;6.70;;;;;;;24.47;27.84;97249.66;116475;1182;69229;-75
2021/10/21 10:06:17;;;;;;;10.10;6.50;;;;;;;24.66;27.45;97241.88;116405;1182;60356;-73
2021/10/21 10:08:46;;;;;;;10.70;6.90;;;;;;;25.11;27.49;97235.73;116309;1183;60412;-81
2021/10/21 10:11:21;;;;;;;10.40;6.40;;;;;;;25.77;26.55;97229.98;116532;1182;71181;-75
2021/10/21 10:13:51;;;;;;;12.70;6.00;;;;;;;26.47;25.66;97226.56;116361;1184;67650;-72
2021/10/21 10:16:21;;;;;;;10.90;6.40;;;;;;;26.56;25.44;97226.99;116461;1181;68502;-81
2021/10/21 10:18:51;;;;;;;7.60;5.70;;;;;;;26.32;24.73;97226.93;116532;1182;60325;-77
2021/10/21 10:21:35;;;;;;;8.70;6.40;;;;;;;26.19;25.11;97226.16;116442;1182;60353;-71
2021/10/21 10:24:11;;;;;;;14.10;6.80;;;;;;;26.81;24.23;97221.48;116455;1182;71394;-82
2021/10/21 10:26:46;;;;;;;12.20;7.00;;;;;;;25.95;25.22;97219.29;116455;1182;67639;-76
2021/10/21 10:29:18;;;;;;;10.80;7.60;;;;;;;25.64;26.09;97215.20;116463;1182;68223;-77
2021/10/21 10:31:56;;;;;;;13.20;7.90;;;;;;;26.11;25.83;97208.16;116413;1182;60351;-81
2021/10/21 10:34:37;;;;;;;9.90;7.50;;;;;;;25.96;25.73;97208.77;116408;1182;60831;-70
2021/10/21 10:37:12;;;;;;;13.50;8.10;;;;;;;25.69;26.08;97205.41;116288;1183;72201;-78
2021/10/21 10:39:45;;;;;;;13.60;8.50;;;;;;;25.08;26.92;97204.20;116403;1182;67676;-77
2021/10/21 10:42:16;;;;;;;13.40;8.90;;;;;;;24.73;26.98;97198.61;116262;1182;69198;-72
2021/10/21 10:44:48;;;;;;;15.00;10.60;;;;;;;24.40;27.84;97195.37;116478;1182;60336;-79
2021/10/21 10:47:37;;;;;;;15.30;10.60;;;;;;;23.13;29.41;97195.29;116549;1181;60444;-73
2021/10/21 10:50:16;;;;;;;16.80;11.20;;;;;;;22.31;31.13;97189.36;116442;1176;72156;-79
2021/10/21 10:52:52;;;;;;;15.30;11.60;;;;;;;23.17;30.78;97184.48;116539;1181;68432;-81
2021/10/21 10:55:27;;;;;;;15.80;10.20;;;;;;;23.66;29.49;97176.79;116514;1181;68481;-71
2021/10/21 10:58:33;;;;;;;14.40;11.00;;;;;;;24.12;29.75;97167.81;116463;1182;60364;-72
2021/10/21 11:01:02;;;;;;;16.30;10.70;;;;;;;25.22;27.66;97165.41;116363;1182;60351;-76
2021/10/21 11:03:32;;;;;;;14.50;10.50;;;;;;;24.92;27.28;97161.52;116343;1184;71389;-73
2021/10/21 11:06:04;;;;;;;;;;;;;;;25.61;26.37;97157.02;116465;1181;67668;-80
2021/10/21 11:09:07;;;;;;;14.60;10.50;;;;;;;25.50;26.23;97158.00;116415;1182;69732;-77
2021/10/21 11:11:55;;;;;;;18.90;11.40;;;;;;;25.10;27.13;97149.71;116242;1184;60376;-76
2021/10/21 11:14:43;;;;;;;17.00;11.30;;;;;;;24.72;27.64;97144.89;116383;1182;60337;-74
2021/10/21 11:17:13;;;;;;;20.00;13.00;;;;;;;24.63;29.02;97140.07;116354;1182;72172;-68
2021/10/21 11:19:48;;;;;;;18.60;12.00;;;;;;;25.09;28.71;97141.16;116424;1182;67821;-76
2021/10/21 11:22:36;;;;;;;17.40;12.90;;;;;;;25.05;27.79;97138.56;116523;1181;68477;-69
2021/10/21 11:25:08;;;;;;;18.70;12.30;;;;;;;25.86;27.36;97132.11;116431;1182;60405;-71
2021/10/21 11:27:42;;;;;;;16.40;12.20;;;;;;;26.37;26.73;97131.08;116410;1182;60359;-69
2021/10/21 11:30:15;;;;;;;19.60;13.50;;;;;;;26.91;26.05;97129.47;116294;1182;72639;-79
2021/10/21 11:33:07;;;;;;;16.40;12.60;;;;;;;27.54;25.74;97123.23;116431;1181;68204;-73
2021/10/21 11:35:40;;;;;;;16.60;12.40;;;;;;;27.66;24.80;97121.05;116458;1182;69187;-75
2021/10/21 11:38:14;;;;;;;17.90;12.00;;;;;;;28.13;24.65;97111.05;116496;1182;60297;-69